Terminal Aerodrome Forecast
Issued by NWS Grand Forks, ND

Home | Current Version | Previous Version | Graphics & Text | Print | Product List | Glossary On
Versions: 1 2 3 4 5 6 7 8 9 10 11 12 13 14 15 16 17 18 19
512
FTUS43 KFGF 221729
TAFFAR
TAF
KFAR 221729Z 2218/2318 25014G22KT P6SM BKN060
     FM230200 02008KT P6SM BKN020
     FM230700 02011KT P6SM BKN020
     FM231600 07011KT P6SM BKN020=

USA.gov is the U.S. government's official web portal to all federal, state and local government web resources and services.